Sonic Adventure (DX): Time Rankings

Records: Times | Rings | Scores | Races | Bosses | Freestyle
Leaders: Times | Rings | Scores | Races | Bosses | Freestyle | Overall
Rank Player Percent Points Date
1 Gamepro011 99.6% 19 08-30-16
2 Sonicspeedruner 98.8% 62 08-30-16
3 Dashjump 95.3% 252 08-30-16
4 Jawzun 95.3% 255 08-30-16
5 DarkPolarNight 93.1% 374 08-30-16
6 F-Man 92.1% 428 08-30-16
7 drminus 92.0% 435 08-30-16
8 THC98 91.8% 447 08-30-16
9 ike6252 89.7% 564 08-30-16
10 Avento128bits 89.3% 581 08-30-16
11 francisco 89.1% 597 08-30-16
12 DarkspinesSonic 88.6% 624 08-30-16
13 Marth 88.3% 638 08-30-16
14 ethmar 87.6% 679 08-30-16
15 frankoredstrato 87.2% 701 08-30-16
16 chainchumper 84.2% 863 08-30-16
17 Paragod 84.1% 866 08-30-16
18 HyperSonic7701 84.0% 875 08-30-16
19 TheRealShadnic 82.3% 965 08-30-16
20 xXMegaManXx 80.9% 1042 08-30-16
21 InferSaime 80.9% 1046 08-30-16
22 Stefan 79.3% 1129 08-30-16
23 Redd 78.9% 1153 08-30-16
24 Coolfansonic 78.8% 1158 08-30-16
25 PfoSonic 78.8% 1160 08-30-16
26 bertin 76.9% 1261 08-30-16
27 yoshifan 76.5% 1286 08-30-16
28 Dave Cramer 74.8% 1377 08-30-16
29 RPGnutter 74.4% 1401 08-30-16
30 sonicam 72.8% 1487 08-30-16
31 Cybrax 72.7% 1491 08-30-16
32 Ring Rush 70.0% 1643 08-30-16
33 mike89 69.2% 1686 08-30-16
34 NintenDan 69.0% 1696 08-30-16
35 a_moustache 68.1% 1745 08-30-16
36 SkyLights 65.4% 1892 08-30-16
37 Nimrod 64.4% 1945 08-30-16
38 Combo 64.0% 1968 08-30-16
39 SADXTryHard 62.2% 2070 08-30-16
40 P1 Pause 61.1% 2129 08-30-16
41 Groudon199 59.3% 2228 08-30-16
42 Game_Complete 59.1% 2240 08-30-16
43 AxlThunder 58.6% 2263 08-30-16
44 Shadow Jacky 58.6% 2264 08-30-16
45 VMU Player Banned 57.7% 2317 08-30-16
46 Thorn 57.3% 2335 08-30-16
47 SB737 56.3% 2391 08-30-16
47 The Knuckles Chao 56.3% 2391 08-30-16
49 SadisticMystic 55.9% 2415 08-30-16
50 Chao_Fan 55.8% 2420 08-30-16
51 Parax 55.6% 2427 08-30-16
52 Mastakirby 55.4% 2440 08-30-16
53 LittleBigness 55.0% 2465 08-30-16
54 KinkyCadence 54.8% 2472 08-30-16
55 mauserman 54.7% 2477 08-30-16
56 OmegaDJ 54.7% 2478 08-30-16
57 Psyknux 54.3% 2498 08-30-16
58 Auriman1 54.1% 2510 08-30-16
59 magnum12 53.9% 2521 08-30-16
60 Turbos 53.7% 2536 08-30-16
61 GerbilSoft 53.1% 2565 08-30-16
62 GreatStar 52.9% 2580 08-30-16
63 Webber3000 52.4% 2604 08-30-16
64 Hipertails12 51.4% 2660 08-30-16
65 James_Bertolli 49.3% 2777 08-30-16
66 Cream147 48.9% 2798 08-30-16
67 welldooder64 48.2% 2836 08-30-16
68 Skylace 48.1% 2843 08-30-16
69 Quartz 47.7% 2862 08-30-16
70 Omega Rafael Santos 47.6% 2869 08-30-16
71 Psymar 47.5% 2873 08-30-16
72 Diamond 47.4% 2881 08-30-16
73 SonicWinDX 46.9% 2906 08-30-16
74 teamblackarms 46.4% 2932 08-30-16
75 Andrea Ritsu 45.8% 2967 08-30-16
76 buddychaos0415 45.5% 2982 08-30-16
77 SilverSonic 44.8% 3019 08-30-16
78 SilvertheAlmighty 44.3% 3049 08-30-16
79 WeegeeZV 44.0% 3064 08-30-16
80 itsPersonnal 44.0% 3065 08-30-16
81 metanightmare22 43.6% 3089 08-30-16
82 lordmetalsonic 41.4% 3205 08-30-16
83 Arch 41.0% 3229 08-30-16
84 Termon 40.1% 3278 08-30-16
85 videogamemaster777 40.1% 3279 08-30-16
86 supersonicfan 39.7% 3298 08-30-16
87 Drakodan 39.3% 3323 08-30-16
88 Kanimayo_Jp 38.9% 3345 08-30-16
89 LilZero 38.9% 3346 08-30-16
90 paulie9990 38.7% 3353 08-30-16
91 FuzZerd 38.6% 3363 08-30-16
92 supersonic465 38.5% 3367 08-30-16
93 eggFL 37.9% 3397 08-30-16
94 Don 37.2% 3435 08-30-16
95 danieldude 37.0% 3447 08-30-16
96 Siavash Tazari 36.4% 3483 08-30-16
97 Fr3nZy 35.9% 3510 08-30-16
98 f0rever_zer0 35.4% 3535 08-30-16
99 Cod4Scopes 35.2% 3545 08-30-16
100 Cyan Ryan 34.9% 3566 08-30-16
101 LinksDarkArrows 34.5% 3587 08-30-16
102 Therio 34.2% 3600 08-30-16
103 Austinf 33.9% 3617 08-30-16
104 elecmouse101 33.5% 3642 08-30-16
105 Staf 33.3% 3652 08-30-16
106 MiStEr_ShAoLiN 32.9% 3671 08-30-16
107 Twilisailor 32.6% 3692 08-30-16
108 BrokenArthritis 32.4% 3703 08-30-16
109 videogamer1014 32.2% 3709 08-30-16
110 Xia 31.7% 3737 08-30-16
111 AC-Tygo 31.5% 3748 08-30-16
112 welshmoose05 31.3% 3759 08-30-16
113 OddCook 30.7% 3794 08-30-16
114 The Great Lord Mick 30.4% 3811 08-30-16
115 Mcshuggets 29.8% 3841 08-30-16
116 Aitamen 29.8% 3845 08-30-16
117 Maxinfamily 29.7% 3850 08-30-16
118 Matt_TY 29.6% 3856 08-30-16
119 dabestgamer 29.3% 3869 08-30-16
119 joecoolgames 29.3% 3869 08-30-16
121 SuperBlitzCraig 28.8% 3896 08-30-16
122 imazor017 28.8% 3900 08-30-16
123 Shadowthegreat 27.9% 3947 08-30-16
124 superjupi 27.8% 3952 08-30-16
125 SuperSonic101 27.8% 3953 08-30-16
126 Rolken 27.4% 3974 08-30-16
127 thewaytodawnnn 27.0% 3994 08-30-16
128 Hunters13 27.0% 3997 08-30-16
129 sonamyfan666 26.8% 4005 08-30-16
130 iarebored 26.6% 4018 08-30-16
131 koinu93 26.6% 4019 08-30-16
132 Spinballwizard 26.5% 4023 08-30-16
133 SaviourDC 26.4% 4030 08-30-16
134 SonicKnuckles 26.4% 4031 08-30-16
135 EngiNerd 25.5% 4080 08-30-16
136 adf 25.3% 4089 08-30-16
137 Megaman EXE565 24.7% 4124 08-30-16
138 The T 24.2% 4147 08-30-16
139 Sonic Singularity 23.7% 4178 08-30-16
140 Platformer 23.4% 4195 08-30-16
141 Pokemonmaster888 23.3% 4201 08-30-16
142 SeaWolf 23.2% 4204 08-30-16
143 timpkmn89 23.0% 4214 08-30-16
144 Swift Hobo 22.5% 4240 08-30-16
145 Sondow 22.3% 4256 08-30-16
146 Rickyman48 22.0% 4270 08-30-16
147 KitsuneYamaro 21.7% 4289 08-30-16
148 FoxBoy 21.5% 4296 08-30-16
149 TFEC Headshot 21.0% 4325 08-30-16
150 Jerzia 20.9% 4332 08-30-16
151 Kogen Player Banned 20.8% 4337 08-30-16
152 SonataSpinDash 20.5% 4352 08-30-16
153 Starlight Sable 20.0% 4382 08-30-16
154 IsisDazs 19.6% 4404 08-30-16
155 HyperSonic64 19.5% 4405 08-30-16
156 crazy1993 19.1% 4431 08-30-16
157 andres430 19.0% 4437 08-30-16
158 SonicU260 18.0% 4489 08-30-16
159 SonicAD 17.6% 4511 08-30-16
160 MPit08 17.6% 4513 08-30-16
161 sonicd5 17.2% 4532 08-30-16
162 iSonicKid2K 16.9% 4550 08-30-16
163 dShadow 16.9% 4552 08-30-16
164 Cutiefox 16.2% 4586 08-30-16
165 BigAL49 16.2% 4588 08-30-16
166 Chawkk 16.1% 4593 08-30-16
167 Miles9999 16.1% 4596 08-30-16
168 Monkeh 16.0% 4601 08-30-16
169 DaDude 15.4% 4631 08-30-16
170 Drflash55 15.2% 4643 08-30-16
171 Bass 14.9% 4659 08-30-16
172 Cruizer 14.6% 4677 08-30-16
173 Destroyer121121 14.6% 4678 08-30-16
174 neaolas 14.5% 4682 08-30-16
174 Yish 14.5% 4682 08-30-16
176 zapp 14.3% 4690 08-30-16
177 superiorsonic 14.2% 4698 08-30-16
177 UninspiredUsername 14.2% 4698 08-30-16
179 gamefreak1292 13.9% 4716 08-30-16
180 Cooljay 13.5% 4736 08-30-16
181 Powerjohn25 13.3% 4744 08-30-16
182 Chaos_Overlord 13.0% 4764 08-30-16
183 Badlex727 12.4% 4798 08-30-16
183 Valfore 12.4% 4798 08-30-16
185 GarnetPrincess 12.3% 4802 08-30-16
186 soniccoloursunleashed 12.0% 4820 08-30-16
187 ShinigamiMachine 11.9% 4826 08-30-16
188 Sonicsuperstar1 11.4% 4849 08-30-16
189 booo95 11.1% 4867 08-30-16
190 SirTobbii 10.9% 4876 08-30-16
191 FocusSight64 10.9% 4878 08-30-16
192 Werey 10.9% 4879 08-30-16
193 Mo Player Banned 10.7% 4889 08-30-16
194 sonicspeed 10.6% 4895 08-30-16
195 N 10.4% 4906 08-30-16
196 Venick409 9.7% 4944 08-30-16
197 nman36 9.6% 4947 08-30-16
198 Sithwarrior26 9.6% 4948 08-30-16
199 ingx24 9.2% 4974 08-30-16
200 CyberShadow 9.1% 4978 08-30-16
201 Fozer 8.7% 4997 08-30-16
202 Colomb_30 8.6% 5005 08-30-16
203 Egor305 8.5% 5010 08-30-16
204 dekki1234 8.5% 5011 08-30-16
205 Regano1000 8.3% 5018 08-30-16
206 1stKirbyever 8.1% 5031 08-30-16
207 TimTH 7.9% 5040 08-30-16
208 nuckrieg 7.9% 5045 08-30-16
209 Brian_pso 7.7% 5052 08-30-16
210 douglas 7.7% 5055 08-30-16
211 Zip 7.5% 5066 08-30-16
212 TakaRikka 7.4% 5069 08-30-16
213 Th4tN1nj4Turtl3 7.4% 5070 08-30-16
214 wheatrich 7.1% 5087 08-30-16
215 Mariosonic15 7.1% 5089 08-30-16
216 niscool 6.7% 5108 08-30-16
217 ieatatsonic 6.7% 5109 08-30-16
218 HermitHelmet 6.7% 5110 08-30-16
218 MStitomix 6.7% 5110 08-30-16
220 Got4n 6.4% 5126 08-30-16
221 Cort_pso 6.3% 5129 08-30-16
222 Triseena 6.3% 5130 08-30-16
223 Jose_15 6.0% 5144 08-30-16
224 Artie 5.9% 5150 08-30-16
225 BlankTH 5.9% 5153 08-30-16
226 SuperSonicfan9595 5.8% 5155 08-30-16
227 Ace747 5.6% 5171 08-30-16
228 Richied 5.5% 5175 08-30-16
229 HHNNBBHHN 5.5% 5176 08-30-16
230 Paixii 5.2% 5188 08-30-16
231 Aiko 5.2% 5191 08-30-16
232 slade23 5.0% 5202 08-30-16
233 BallzeH 5.0% 5203 08-30-16
234 ArcticDragon 4.9% 5208 08-30-16
234 FSSRandomvids 4.9% 5208 08-30-16
236 Mankster101 4.9% 5209 08-30-16
237 BecauseWarAnvil 4.8% 5211 08-30-16
238 PsyBorg 4.8% 5212 08-30-16
239 Jamixesa 4.8% 5214 08-30-16
240 Nickson98 4.7% 5218 08-30-16
241 Crydio 4.6% 5223 08-30-16
242 TheUltraBlur 4.4% 5232 08-30-16
243 ReuelBrony 4.4% 5236 08-30-16
244 MarewBFN 4.2% 5243 08-30-16
245 stanski 4.2% 5244 08-30-16
246 tal39h 4.2% 5246 08-30-16
247 ALundstrom10 4.0% 5257 08-30-16
247 p0ker 4.0% 5257 08-30-16
249 knuckles_sonic8 3.9% 5259 08-30-16
250 Blue Infamy 3.9% 5260 08-30-16
251 ErrortheCucco 3.7% 5271 08-30-16
252 Rikum22 3.7% 5274 08-30-16
253 sonic1001 3.5% 5283 08-30-16
253 TheChaosEmeraIds 3.5% 5283 08-30-16
255 AJSIV 3.4% 5288 08-30-16
256 syco1098 3.4% 5290 08-30-16
257 Sonic the Hedgehod16 3.3% 5293 08-30-16
258 Calfd 3.2% 5300 08-30-16
259 sonicfan9 3.2% 5301 08-30-16
260 themachoman202 2.9% 5314 08-30-16
261 MK 2.9% 5315 08-30-16
262 Fivavoa 2.8% 5324 08-30-16
262 Mr. Jones 2.8% 5324 08-30-16
264 BlackArmsShadow 2.7% 5325 08-30-16
265 djmat 2.7% 5326 08-30-16
266 arcfx1985 2.7% 5327 08-30-16
267 ptorflaxendrosis 2.7% 5329 08-30-16
268 Sonique Hedgehog 2.7% 5330 08-30-16
269 FlandreScarlet9999vr 2.6% 5334 08-30-16
270 Zeldocto 2.5% 5337 08-30-16
271 BeeAwwb 2.5% 5341 08-30-16
272 KaM Mark MaK 2.4% 5342 08-30-16
273 ShadouZaHejjihoggu 2.3% 5349 08-30-16
274 darkstarblaze 2.2% 5354 08-30-16
275 Sonic The Star 2.2% 5356 08-30-16
276 darkersupershadic 2.2% 5357 08-30-16
277 SpiritDragon1995 2.1% 5358 08-30-16
278 Sarger001 2.1% 5360 08-30-16
279 Grady219 2.0% 5363 08-30-16
279 sonic29887 2.0% 5363 08-30-16
281 shadowblast63 Player Banned 2.0% 5368 08-30-16
282 Jawaah 1.9% 5369 08-30-16
283 Antek 1.9% 5373 08-30-16
284 Klaus 1.8% 5375 08-30-16
285 BioShadow 1.8% 5378 08-30-16
286 SkyBon 1.4% 5396 08-30-16
287 Shanekilz 1.4% 5397 08-30-16
288 isaihtb11 1.4% 5400 08-30-16
289 OhNoes! 1.3% 5402 08-30-16
290 zaktu40 1.3% 5403 08-30-16
291 gaara1234 1.3% 5406 08-30-16
292 S-MS32X-S 1.2% 5408 08-30-16
293 MastaToken 1.1% 5413 08-30-16
294 Mister_Slick 1.1% 5417 08-30-16
295 Sonic06Fan 1.0% 5420 08-30-16
296 Rush Hero 1.0% 5422 08-30-16
297 SonicMega167 0.9% 5427 08-30-16
298 oTaiIilLsS 0.8% 5429 08-30-16
298 SilverK 0.8% 5429 08-30-16
300 gamed00d 0.8% 5430 08-30-16
301 Burningskull123 0.5% 5446 08-30-16
302 Heroes_Hater 0.5% 5448 08-30-16
303 Sonicontherun 0.3% 5457 08-30-16
304 antiwwe 0.2% 5463 08-30-16
305 Iwannabelink 0.2% 5465 08-30-16
306 Genuine Hedgehog 0.2% 5467 08-30-16
307 dragondragon18 0.1% 5471 08-30-16
308 SonicK100 0.1% 5472 08-30-16
309 Tyrouble 0.0% 5477 08-30-16
310 LancexExWx 0.0% 5478 08-30-16
310 neji_hyuuga 0.0% 5478 08-30-16
310 Over 0.0% 5478 08-30-16
310 sdj6707 Player Banned 0.0% 5478 08-30-16
310 Tran Sonic Fan Player Banned 0.0% 5478 08-30-16

This page is using the New Data Table System. [FUTURE]

Game ID: 3 | Category ID: 1
Hits: 8,253 | Hits This Month: 51 | DB Calls: 24 | Mem Usage: 5.46 MB | Time: 0.23s | Printable

The Sonic Center v3.9 Hax in Progress
Copyright 2003-2011 by The Sonic Center Team.